sensor_id;sensor_type;location;lat;lon;timestamp;pressure;altitude;pressure_sealevel;temperature;humidity
70343;BME280;57767;42.068;24.752;2023-08-07T00:00:25;98068.13;;;22.84;45.00
70343;BME280;57767;42.068;24.752;2023-08-07T00:01:31;98060.81;;;22.76;45.00
70343;BME280;57767;42.068;24.752;2023-08-07T00:02:33;98069.16;;;22.74;45.28
70343;BME280;57767;42.068;24.752;2023-08-07T00:03:37;98080.22;;;22.73;45.39
70343;BME280;57767;42.068;24.752;2023-08-07T00:04:39;98074.66;;;22.69;45.48
70343;BME280;57767;42.068;24.752;2023-08-07T00:05:46;98079.53;;;22.67;45.83
70343;BME280;57767;42.068;24.752;2023-08-07T00:06:48;98077.16;;;22.66;45.67
70343;BME280;57767;42.068;24.752;2023-08-07T00:07:51;98079.22;;;22.69;45.58
70343;BME280;57767;42.068;24.752;2023-08-07T00:08:52;98083.16;;;22.63;45.69
70343;BME280;57767;42.068;24.752;2023-08-07T00:09:54;98078.88;;;22.62;45.78
70343;BME280;57767;42.068;24.752;2023-08-07T00:11:10;98075.78;;;22.55;46.25
70343;BME280;57767;42.068;24.752;2023-08-07T00:12:12;98078.03;;;22.52;46.26
70343;BME280;57767;42.068;24.752;2023-08-07T00:13:14;98071.66;;;22.48;46.40
70343;BME280;57767;42.068;24.752;2023-08-07T00:14:15;98077.53;;;22.50;46.23
70343;BME280;57767;42.068;24.752;2023-08-07T00:15:17;98044.00;;;22.34;46.13
70343;BME280;57767;42.068;24.752;2023-08-07T00:16:19;98070.06;;;22.47;46.25
70343;BME280;57767;42.068;24.752;2023-08-07T00:17:21;98077.94;;;22.44;46.51
70343;BME280;57767;42.068;24.752;2023-08-07T00:18:24;98070.00;;;22.39;46.30
70343;BME280;57767;42.068;24.752;2023-08-07T00:19:26;98081.41;;;22.44;46.67
70343;BME280;57767;42.068;24.752;2023-08-07T00:20:28;98074.44;;;22.43;46.50
70343;BME280;57767;42.068;24.752;2023-08-07T00:21:29;98070.47;;;22.41;46.39
70343;BME280;57767;42.068;24.752;2023-08-07T00:22:31;98069.56;;;22.45;46.79
70343;BME280;57767;42.068;24.752;2023-08-07T00:23:34;98073.84;;;22.46;46.63
70343;BME280;57767;42.068;24.752;2023-08-07T00:24:35;98071.75;;;22.43;46.61
70343;BME280;57767;42.068;24.752;2023-08-07T00:25:37;98065.28;;;22.44;46.51
70343;BME280;57767;42.068;24.752;2023-08-07T00:26:39;98073.34;;;22.44;46.69
70343;BME280;57767;42.068;24.752;2023-08-07T00:27:41;98064.78;;;22.42;46.80
70343;BME280;57767;42.068;24.752;2023-08-07T00:28:43;98067.47;;;22.42;46.92
70343;BME280;57767;42.068;24.752;2023-08-07T00:29:45;98072.84;;;22.42;46.48
70343;BME280;57767;42.068;24.752;2023-08-07T00:30:47;98067.47;;;22.42;46.80
70343;BME280;57767;42.068;24.752;2023-08-07T00:31:48;98068.59;;;22.41;46.78
70343;BME280;57767;42.068;24.752;2023-08-07T00:32:51;98072.97;;;22.37;46.96
70343;BME280;57767;42.068;24.752;2023-08-07T00:33:52;98076.16;;;22.39;46.68
70343;BME280;57767;42.068;24.752;2023-08-07T00:34:58;98074.06;;;22.36;46.79
70343;BME280;57767;42.068;24.752;2023-08-07T00:35:59;98077.84;;;22.35;47.35
70343;BME280;57767;42.068;24.752;2023-08-07T00:37:01;98062.44;;;22.27;47.39
70343;BME280;57767;42.068;24.752;2023-08-07T00:38:03;98080.66;;;22.30;47.09
70343;BME280;57767;42.068;24.752;2023-08-07T00:39:05;98076.38;;;22.29;47.42
70343;BME280;57767;42.068;24.752;2023-08-07T00:40:07;98082.66;;;22.25;47.69
70343;BME280;57767;42.068;24.752;2023-08-07T00:41:09;98079.28;;;22.19;47.79
70343;BME280;57767;42.068;24.752;2023-08-07T00:42:11;98074.41;;;22.21;47.64
70343;BME280;57767;42.068;24.752;2023-08-07T00:43:13;98075.50;;;22.20;47.67
70343;BME280;57767;42.068;24.752;2023-08-07T00:44:15;98077.88;;;22.22;47.33
70343;BME280;57767;42.068;24.752;2023-08-07T00:45:16;98082.16;;;22.23;47.39
70343;BME280;57767;42.068;24.752;2023-08-07T00:46:19;98079.59;;;22.17;47.34
70343;BME280;57767;42.068;24.752;2023-08-07T00:47:21;98081.69;;;22.21;47.45
70343;BME280;57767;42.068;24.752;2023-08-07T00:48:23;98082.28;;;22.17;47.87
70343;BME280;57767;42.068;24.752;2023-08-07T00:49:25;98081.47;;;22.17;47.68
70343;BME280;57767;42.068;24.752;2023-08-07T00:50:27;98085.38;;;22.11;47.96
70343;BME280;57767;42.068;24.752;2023-08-07T00:51:47;98093.25;;;22.07;48.03
70343;BME280;57767;42.068;24.752;2023-08-07T00:52:49;98094.84;;;22.08;48.03
70343;BME280;57767;42.068;24.752;2023-08-07T00:53:51;98081.31;;;22.00;48.33
70343;BME280;57767;42.068;24.752;2023-08-07T00:54:53;98095.25;;;22.02;48.08
70343;BME280;57767;42.068;24.752;2023-08-07T00:55:55;98100.63;;;22.02;48.35
70343;BME280;57767;42.068;24.752;2023-08-07T00:57:11;98095.25;;;22.02;48.21
70343;BME280;57767;42.068;24.752;2023-08-07T00:58:13;98100.63;;;22.02;48.35
70343;BME280;57767;42.068;24.752;2023-08-07T00:59:15;98098.25;;;22.00;48.47
70343;BME280;57767;42.068;24.752;2023-08-07T01:00:18;98100.63;;;22.02;48.56
70343;BME280;57767;42.068;24.752;2023-08-07T01:01:21;98101.44;;;22.02;48.60
70343;BME280;57767;42.068;24.752;2023-08-07T01:02:23;98110.59;;;22.01;48.71
70343;BME280;57767;42.068;24.752;2023-08-07T01:03:25;98114.66;;;21.99;48.76
70343;BME280;57767;42.068;24.752;2023-08-07T01:04:27;98110.34;;;21.98;48.80
70343;BME280;57767;42.068;24.752;2023-08-07T01:05:30;98108.75;;;21.97;48.76
70343;BME280;57767;42.068;24.752;2023-08-07T01:06:32;98115.81;;;21.93;48.82
70343;BME280;57767;42.068;24.752;2023-08-07T01:07:33;98122.00;;;21.93;48.65
70343;BME280;57767;42.068;24.752;2023-08-07T01:08:35;98126.09;;;21.91;49.01
70343;BME280;57767;42.068;24.752;2023-08-07T01:09:38;98127.50;;;21.88;49.10
70343;BME280;57767;42.068;24.752;2023-08-07T01:12:14;98129.97;;;21.85;49.11
70343;BME280;57767;42.068;24.752;2023-08-07T01:13:26;98127.06;;;21.81;49.22
70343;BME280;57767;42.068;24.752;2023-08-07T01:15:08;98129.25;;;21.79;49.20
70343;BME280;57767;42.068;24.752;2023-08-07T01:16:18;98114.94;;;21.70;48.96
70343;BME280;57767;42.068;24.752;2023-08-07T01:17:23;98129.66;;;21.72;49.66
70343;BME280;57767;42.068;24.752;2023-08-07T01:18:26;98128.66;;;21.68;49.46
70343;BME280;57767;42.068;24.752;2023-08-07T01:19:28;98135.63;;;21.69;49.35
70343;BME280;57767;42.068;24.752;2023-08-07T01:20:30;98139.22;;;21.65;49.37
70343;BME280;57767;42.068;24.752;2023-08-07T01:21:32;98135.22;;;21.62;49.68
70343;BME280;57767;42.068;24.752;2023-08-07T01:22:36;98139.00;;;21.61;49.73
70343;BME280;57767;42.068;24.752;2023-08-07T01:23:38;98135.03;;;21.59;49.42
70343;BME280;57767;42.068;24.752;2023-08-07T01:24:42;98137.72;;;21.59;49.76
70343;BME280;57767;42.068;24.752;2023-08-07T01:25:45;98133.72;;;21.56;49.85
70343;BME280;57767;42.068;24.752;2023-08-07T01:26:47;98133.84;;;21.51;49.83
70343;BME280;57767;42.068;24.752;2023-08-07T01:28:02;98137.09;;;21.48;50.17
70343;BME280;57767;42.068;24.752;2023-08-07T01:29:21;98139.28;;;21.46;50.42
70343;BME280;57767;42.068;24.752;2023-08-07T01:30:37;98141.75;;;21.42;50.52
70343;BME280;57767;42.068;24.752;2023-08-07T01:31:40;98132.91;;;21.42;50.54
70343;BME280;57767;42.068;24.752;2023-08-07T01:32:57;98144.25;;;21.39;50.84
70343;BME280;57767;42.068;24.752;2023-08-07T01:34:07;98130.91;;;21.34;50.75
70343;BME280;57767;42.068;24.752;2023-08-07T01:35:14;98133.38;;;21.30;50.93
70343;BME280;57767;42.068;24.752;2023-08-07T01:36:16;98134.75;;;21.28;51.01
70343;BME280;57767;42.068;24.752;2023-08-07T01:37:20;98136.44;;;21.24;50.90
70343;BME280;57767;42.068;24.752;2023-08-07T01:38:26;98142.91;;;21.23;51.37
70343;BME280;57767;42.068;24.752;2023-08-07T01:39:28;98140.25;;;21.18;51.47
70343;BME280;57767;42.068;24.752;2023-08-07T01:40:32;98147.53;;;21.17;51.58
70343;BME280;57767;42.068;24.752;2023-08-07T01:41:34;98152.38;;;21.15;51.42
70343;BME280;57767;42.068;24.752;2023-08-07T01:42:37;98148.13;;;21.14;51.36
70343;BME280;57767;42.068;24.752;2023-08-07T01:43:40;98154.38;;;21.09;51.84
70343;BME280;57767;42.068;24.752;2023-08-07T01:44:42;98153.28;;;21.10;51.53
70343;BME280;57767;42.068;24.752;2023-08-07T01:45:44;98159.28;;;21.02;52.09
70343;BME280;57767;42.068;24.752;2023-08-07T01:46:45;98154.44;;;21.04;51.99
70343;BME280;57767;42.068;24.752;2023-08-07T01:47:47;98160.88;;;21.03;52.25
70343;BME280;57767;42.068;24.752;2023-08-07T01:48:49;98159.91;;;20.99;52.15
70343;BME280;57767;42.068;24.752;2023-08-07T01:49:51;98161.50;;;21.00;52.18
70343;BME280;57767;42.068;24.752;2023-08-07T01:50:53;98163.69;;;20.98;52.35
70343;BME280;57767;42.068;24.752;2023-08-07T01:51:56;98169.84;;;20.99;52.49
70343;BME280;57767;42.068;24.752;2023-08-07T01:52:58;98157.00;;;20.96;52.38
70343;BME280;57767;42.068;24.752;2023-08-07T01:53:59;98167.97;;;20.99;52.55
70343;BME280;57767;42.068;24.752;2023-08-07T01:55:01;98169.03;;;20.98;52.38
70343;BME280;57767;42.068;24.752;2023-08-07T01:56:03;98164.03;;;20.92;52.50
70343;BME280;57767;42.068;24.752;2023-08-07T01:57:05;98173.91;;;20.96;52.68
70343;BME280;57767;42.068;24.752;2023-08-07T01:58:07;98168.03;;;20.94;52.63
70343;BME280;57767;42.068;24.752;2023-08-07T01:59:09;98162.06;;;20.97;52.63
70343;BME280;57767;42.068;24.752;2023-08-07T02:00:11;98172.00;;;20.97;52.59
70343;BME280;57767;42.068;24.752;2023-08-07T02:01:13;98161.84;;;20.94;52.75
70343;BME280;57767;42.068;24.752;2023-08-07T02:02:15;98161.06;;;20.93;52.60
70343;BME280;57767;42.068;24.752;2023-08-07T02:03:17;98163.44;;;20.95;52.90
70343;BME280;57767;42.068;24.752;2023-08-07T02:04:19;98168.81;;;20.95;52.59
70343;BME280;57767;42.068;24.752;2023-08-07T02:05:20;98173.84;;;21.01;52.60
70343;BME280;57767;42.068;24.752;2023-08-07T02:06:22;98181.56;;;21.03;52.72
70343;BME280;57767;42.068;24.752;2023-08-07T02:07:24;98181.94;;;20.96;52.80
70343;BME280;57767;42.068;24.752;2023-08-07T02:08:26;98184.13;;;20.94;52.75
70343;BME280;57767;42.068;24.752;2023-08-07T02:09:28;98175.78;;;20.96;52.80
70343;BME280;57767;42.068;24.752;2023-08-07T02:10:29;98177.66;;;20.95;52.65
70343;BME280;57767;42.068;24.752;2023-08-07T02:11:33;98181.38;;;20.99;52.79
70343;BME280;57767;42.068;24.752;2023-08-07T02:12:34;98180.34;;;20.95;52.71
70343;BME280;57767;42.068;24.752;2023-08-07T02:13:36;98176.88;;;20.95;52.75
70343;BME280;57767;42.068;24.752;2023-08-07T02:14:38;98180.94;;;20.92;52.80
70343;BME280;57767;42.068;24.752;2023-08-07T02:15:40;98176.16;;;20.89;52.77
70343;BME280;57767;42.068;24.752;2023-08-07T02:16:42;98165.50;;;20.84;52.83
70343;BME280;57767;42.068;24.752;2023-08-07T02:17:44;98175.66;;;20.87;52.75
70343;BME280;57767;42.068;24.752;2023-08-07T02:18:46;98171.66;;;20.85;53.18
70343;BME280;57767;42.068;24.752;2023-08-07T02:19:47;98173.84;;;20.83;53.14
70343;BME280;57767;42.068;24.752;2023-08-07T02:20:49;98178.41;;;20.82;53.50
70343;BME280;57767;42.068;24.752;2023-08-07T02:21:51;98177.88;;;20.80;53.38
70343;BME280;57767;42.068;24.752;2023-08-07T02:22:53;98170.63;;;20.81;53.37
70343;BME280;57767;42.068;24.752;2023-08-07T02:23:54;98180.78;;;20.84;53.14
70343;BME280;57767;42.068;24.752;2023-08-07T02:24:56;98179.19;;;20.83;53.49
70343;BME280;57767;42.068;24.752;2023-08-07T02:25:58;98175.72;;;20.82;53.70
70343;BME280;57767;42.068;24.752;2023-08-07T02:27:00;98183.84;;;20.77;53.29
70343;BME280;57767;42.068;24.752;2023-08-07T02:28:01;98184.94;;;20.76;53.64
70343;BME280;57767;42.068;24.752;2023-08-07T02:29:03;98185.50;;;20.73;53.50
70343;BME280;57767;42.068;24.752;2023-08-07T02:30:05;98192.19;;;20.76;53.47
70343;BME280;57767;42.068;24.752;2023-08-07T02:31:07;98167.88;;;20.67;53.42
70343;BME280;57767;42.068;24.752;2023-08-07T02:32:12;98161.06;;;20.56;53.65
70343;BME280;57767;42.068;24.752;2023-08-07T02:33:14;98189.84;;;20.69;53.48
70343;BME280;57767;42.068;24.752;2023-08-07T02:34:16;98187.97;;;20.69;53.72
70343;BME280;57767;42.068;24.752;2023-08-07T02:35:18;98175.41;;;20.65;53.67
70343;BME280;57767;42.068;24.752;2023-08-07T02:36:20;98171.66;;;20.66;53.58
70343;BME280;57767;42.068;24.752;2023-08-07T02:37:21;98180.22;;;20.68;54.02
70343;BME280;57767;42.068;24.752;2023-08-07T02:38:25;98178.59;;;20.67;53.84
70343;BME280;57767;42.068;24.752;2023-08-07T02:39:27;98180.50;;;20.66;53.95
70343;BME280;57767;42.068;24.752;2023-08-07T02:40:28;98186.66;;;20.67;53.94
70343;BME280;57767;42.068;24.752;2023-08-07T02:41:31;98186.94;;;20.65;53.73
70343;BME280;57767;42.068;24.752;2023-08-07T02:42:33;98187.53;;;20.62;53.77
70343;BME280;57767;42.068;24.752;2023-08-07T02:43:35;98189.13;;;20.63;53.82
70343;BME280;57767;42.068;24.752;2023-08-07T02:44:37;98187.81;;;20.61;53.96
70343;BME280;57767;42.068;24.752;2023-08-07T02:45:39;98185.72;;;20.58;53.99
70343;BME280;57767;42.068;24.752;2023-08-07T02:46:40;98196.16;;;20.59;53.98
70343;BME280;57767;42.068;24.752;2023-08-07T02:47:43;98197.75;;;20.60;54.06
70343;BME280;57767;42.068;24.752;2023-08-07T02:48:44;98203.97;;;20.56;54.24
70343;BME280;57767;42.068;24.752;2023-08-07T02:49:46;98202.91;;;20.57;54.15
70343;BME280;57767;42.068;24.752;2023-08-07T02:50:48;98199.41;;;20.56;53.94
70343;BME280;57767;42.068;24.752;2023-08-07T02:51:52;98201.56;;;20.54;54.04
70343;BME280;57767;42.068;24.752;2023-08-07T02:52:54;98193.81;;;20.53;54.26
70343;BME280;57767;42.068;24.752;2023-08-07T02:53:56;98200.72;;;20.59;53.98
70343;BME280;57767;42.068;24.752;2023-08-07T02:54:58;98197.75;;;20.60;54.30
70343;BME280;57767;42.068;24.752;2023-08-07T02:56:00;98187.09;;;20.55;54.26
70343;BME280;57767;42.068;24.752;2023-08-07T02:57:01;98201.25;;;20.61;54.24
70343;BME280;57767;42.068;24.752;2023-08-07T02:58:03;98198.84;;;20.59;54.00
70343;BME280;57767;42.068;24.752;2023-08-07T02:59:05;98203.63;;;20.62;54.27
70343;BME280;57767;42.068;24.752;2023-08-07T03:00:08;98204.72;;;20.61;54.19
70343;BME280;57767;42.068;24.752;2023-08-07T03:01:10;98202.03;;;20.61;54.12
70343;BME280;57767;42.068;24.752;2023-08-07T03:02:13;98200.34;;;20.65;54.35
70343;BME280;57767;42.068;24.752;2023-08-07T03:03:14;98201.47;;;20.64;54.33
70343;BME280;57767;42.068;24.752;2023-08-07T03:04:16;98206.31;;;20.62;54.37
70343;BME280;57767;42.068;24.752;2023-08-07T03:05:18;98203.91;;;20.61;54.43
70343;BME280;57767;42.068;24.752;2023-08-07T03:06:20;98209.28;;;20.61;54.36
70343;BME280;57767;42.068;24.752;2023-08-07T03:07:21;98214.13;;;20.59;54.52
70343;BME280;57767;42.068;24.752;2023-08-07T03:08:24;98211.22;;;20.55;54.61
70343;BME280;57767;42.068;24.752;2023-08-07T03:09:25;98218.47;;;20.55;54.62
70343;BME280;57767;42.068;24.752;2023-08-07T03:10:27;98210.28;;;20.46;54.85
70343;BME280;57767;42.068;24.752;2023-08-07T03:11:29;98210.00;;;20.48;55.09
70343;BME280;57767;42.068;24.752;2023-08-07T03:12:31;98215.06;;;20.49;54.99
70343;BME280;57767;42.068;24.752;2023-08-07T03:13:33;98216.66;;;20.50;55.20
70343;BME280;57767;42.068;24.752;2023-08-07T03:14:35;98210.28;;;20.46;55.30
70343;BME280;57767;42.068;24.752;2023-08-07T03:15:37;98218.59;;;20.45;55.19
70343;BME280;57767;42.068;24.752;2023-08-07T03:16:39;98218.31;;;20.46;55.29
70343;BME280;57767;42.068;24.752;2023-08-07T03:17:40;98217.00;;;20.44;55.24
70343;BME280;57767;42.068;24.752;2023-08-07T03:18:42;98216.44;;;20.47;55.01
70343;BME280;57767;42.068;24.752;2023-08-07T03:19:44;98217.00;;;20.44;55.25
70343;BME280;57767;42.068;24.752;2023-08-07T03:20:46;98213.00;;;20.41;55.38
70343;BME280;57767;42.068;24.752;2023-08-07T03:21:48;98219.97;;;20.42;55.34
70343;BME280;57767;42.068;24.752;2023-08-07T03:22:50;98213.81;;;20.42;55.45
70343;BME280;57767;42.068;24.752;2023-08-07T03:23:51;98213.88;;;20.36;55.78
70343;BME280;57767;42.068;24.752;2023-08-07T03:24:53;98224.31;;;20.38;55.41
70343;BME280;57767;42.068;24.752;2023-08-07T03:26:09;98217.09;;;20.38;55.45
70343;BME280;57767;42.068;24.752;2023-08-07T03:27:14;98217.09;;;20.33;55.43
70343;BME280;57767;42.068;24.752;2023-08-07T03:28:17;98221.94;;;20.36;55.58
70343;BME280;57767;42.068;24.752;2023-08-07T03:29:18;98218.69;;;20.34;55.77
70343;BME280;57767;42.068;24.752;2023-08-07T03:30:20;98218.44;;;20.36;55.79
70343;BME280;57767;42.068;24.752;2023-08-07T03:31:22;98216.81;;;20.35;55.57
70343;BME280;57767;42.068;24.752;2023-08-07T03:32:24;98218.19;;;20.32;55.75
70343;BME280;57767;42.068;24.752;2023-08-07T03:33:26;98222.47;;;20.33;55.49
70343;BME280;57767;42.068;24.752;2023-08-07T03:34:28;98212.88;;;20.27;55.54
70343;BME280;57767;42.068;24.752;2023-08-07T03:35:30;98221.38;;;20.34;55.53
70343;BME280;57767;42.068;24.752;2023-08-07T03:36:32;98225.94;;;20.39;55.68
70343;BME280;57767;42.068;24.752;2023-08-07T03:37:33;98228.00;;;20.42;55.37
70343;BME280;57767;42.068;24.752;2023-08-07T03:38:35;98220.56;;;20.39;55.50
70343;BME280;57767;42.068;24.752;2023-08-07T03:39:37;98227.44;;;20.45;55.69
70343;BME280;57767;42.068;24.752;2023-08-07T03:40:39;98217.25;;;20.47;55.33
70343;BME280;57767;42.068;24.752;2023-08-07T03:41:41;98223.91;;;20.50;55.26
70343;BME280;57767;42.068;24.752;2023-08-07T03:42:42;98220.94;;;20.51;55.44
70343;BME280;57767;42.068;24.752;2023-08-07T03:43:44;98218.28;;;20.51;55.12
70343;BME280;57767;42.068;24.752;2023-08-07T03:44:46;98221.44;;;20.53;55.06
70343;BME280;57767;42.068;24.752;2023-08-07T03:45:54;98218.75;;;20.53;55.15
70343;BME280;57767;42.068;24.752;2023-08-07T03:46:56;98221.38;;;20.58;54.88
70343;BME280;57767;42.068;24.752;2023-08-07T03:47:59;98221.09;;;20.60;55.11
70343;BME280;57767;42.068;24.752;2023-08-07T03:49:01;98197.94;;;20.45;54.81
70343;BME280;57767;42.068;24.752;2023-08-07T03:50:03;98225.09;;;20.62;54.80
70343;BME280;57767;42.068;24.752;2023-08-07T03:51:06;98225.81;;;20.68;54.64
70343;BME280;57767;42.068;24.752;2023-08-07T03:52:12;98226.38;;;20.65;54.40
70343;BME280;57767;42.068;24.752;2023-08-07T03:53:14;98228.50;;;20.68;54.42
70343;BME280;57767;42.068;24.752;2023-08-07T03:54:15;98229.16;;;20.79;54.05
70343;BME280;57767;42.068;24.752;2023-08-07T03:55:17;98231.41;;;20.90;54.04
70343;BME280;57767;42.068;24.752;2023-08-07T03:56:19;98230.78;;;20.98;53.87
70343;BME280;57767;42.068;24.752;2023-08-07T03:57:21;98238.09;;;21.12;53.64
70343;BME280;57767;42.068;24.752;2023-08-07T03:58:23;98229.34;;;21.25;53.33
70343;BME280;57767;42.068;24.752;2023-08-07T03:59:25;98232.66;;;21.35;52.57
70343;BME280;57767;42.068;24.752;2023-08-07T04:00:27;98230.88;;;21.44;52.54
70343;BME280;57767;42.068;24.752;2023-08-07T04:01:28;98230.81;;;21.50;52.32
70343;BME280;57767;42.068;24.752;2023-08-07T04:02:33;98235.72;;;21.61;51.78
70343;BME280;57767;42.068;24.752;2023-08-07T04:03:35;98230.75;;;21.68;51.50
70343;BME280;57767;42.068;24.752;2023-08-07T04:04:37;98234.38;;;21.77;50.88
70343;BME280;57767;42.068;24.752;2023-08-07T04:05:39;98234.19;;;21.88;51.03
70343;BME280;57767;42.068;24.752;2023-08-07T04:06:40;98238.88;;;21.96;50.68
70343;BME280;57767;42.068;24.752;2023-08-07T04:07:42;98234.44;;;22.05;49.95
70343;BME280;57767;42.068;24.752;2023-08-07T04:08:47;98231.66;;;22.10;49.99
70343;BME280;57767;42.068;24.752;2023-08-07T04:09:49;98237.34;;;22.22;49.72
70343;BME280;57767;42.068;24.752;2023-08-07T04:11:04;98239.81;;;22.32;49.78
70343;BME280;57767;42.068;24.752;2023-08-07T04:12:07;98231.88;;;22.41;49.62
70343;BME280;57767;42.068;24.752;2023-08-07T04:13:08;98242.44;;;22.51;49.32
70343;BME280;57767;42.068;24.752;2023-08-07T04:14:10;98236.03;;;22.61;48.85
70343;BME280;57767;42.068;24.752;2023-08-07T04:15:12;98229.47;;;22.67;48.59
70343;BME280;57767;42.068;24.752;2023-08-07T04:16:14;98234.66;;;22.77;48.10
70343;BME280;57767;42.068;24.752;2023-08-07T04:17:17;98230.72;;;22.83;47.90
70343;BME280;57767;42.068;24.752;2023-08-07T04:18:19;98245.47;;;22.99;47.62
70343;BME280;57767;42.068;24.752;2023-08-07T04:19:21;98255.69;;;23.11;46.98
70343;BME280;57767;42.068;24.752;2023-08-07T04:20:22;98252.69;;;23.12;46.68
70343;BME280;57767;42.068;24.752;2023-08-07T04:21:24;98247.38;;;23.21;47.16
70343;BME280;57767;42.068;24.752;2023-08-07T04:22:26;98249.16;;;23.26;46.45
70343;BME280;57767;42.068;24.752;2023-08-07T04:23:28;98254.81;;;23.38;45.90
70343;BME280;57767;42.068;24.752;2023-08-07T04:24:30;98257.06;;;23.44;46.15
70343;BME280;57767;42.068;24.752;2023-08-07T04:25:32;98260.66;;;23.53;45.77
70343;BME280;57767;42.068;24.752;2023-08-07T04:26:34;98251.34;;;23.60;45.92
70343;BME280;57767;42.068;24.752;2023-08-07T04:27:36;98265.84;;;23.72;45.73
70343;BME280;57767;42.068;24.752;2023-08-07T04:28:37;98263.84;;;23.78;45.26
70343;BME280;57767;42.068;24.752;2023-08-07T04:29:39;98268.16;;;23.87;45.32
70343;BME280;57767;42.068;24.752;2023-08-07T04:30:41;98268.19;;;23.96;45.23
70343;BME280;57767;42.068;24.752;2023-08-07T04:31:43;98275.91;;;24.11;45.01
70343;BME280;57767;42.068;24.752;2023-08-07T04:32:45;98268.59;;;24.12;44.57
70343;BME280;57767;42.068;24.752;2023-08-07T04:33:47;98269.41;;;24.12;44.55
70343;BME280;57767;42.068;24.752;2023-08-07T04:34:48;98268.00;;;24.15;44.79
70343;BME280;57767;42.068;24.752;2023-08-07T04:35:50;98271.03;;;24.22;44.82
70343;BME280;57767;42.068;24.752;2023-08-07T04:36:52;98275.72;;;24.30;44.50
70343;BME280;57767;42.068;24.752;2023-08-07T04:37:55;98276.03;;;24.37;44.86
70343;BME280;57767;42.068;24.752;2023-08-07T04:38:57;98277.34;;;24.48;44.94
70343;BME280;57767;42.068;24.752;2023-08-07T04:39:59;98276.75;;;24.60;43.83
70343;BME280;57767;42.068;24.752;2023-08-07T04:41:02;98278.03;;;24.62;43.91
70343;BME280;57767;42.068;24.752;2023-08-07T04:42:05;98275.03;;;24.73;43.57
70343;BME280;57767;42.068;24.752;2023-08-07T04:43:06;98266.00;;;24.77;42.86
70343;BME280;57767;42.068;24.752;2023-08-07T04:44:08;98276.13;;;24.54;42.99
70343;BME280;57767;42.068;24.752;2023-08-07T04:45:11;98273.56;;;24.49;43.38
70343;BME280;57767;42.068;24.752;2023-08-07T04:46:13;98276.94;;;24.63;43.58
70343;BME280;57767;42.068;24.752;2023-08-07T04:47:15;98273.31;;;24.77;43.58
70343;BME280;57767;42.068;24.752;2023-08-07T04:48:17;98277.78;;;24.90;42.57
70343;BME280;57767;42.068;24.752;2023-08-07T04:49:19;98277.34;;;24.96;42.71
70343;BME280;57767;42.068;24.752;2023-08-07T04:50:21;98274.97;;;25.04;42.58
70343;BME280;57767;42.068;24.752;2023-08-07T04:51:23;98274.84;;;25.17;42.69
70343;BME280;57767;42.068;24.752;2023-08-07T04:52:25;98275.94;;;25.33;42.14
70343;BME280;57767;42.068;24.752;2023-08-07T04:53:27;98267.66;;;25.47;41.75
70343;BME280;57767;42.068;24.752;2023-08-07T04:54:29;98268.00;;;25.54;41.29
70343;BME280;57767;42.068;24.752;2023-08-07T04:55:31;98266.41;;;25.53;40.87
70343;BME280;57767;42.068;24.752;2023-08-07T04:56:33;98269.72;;;25.50;40.63
70343;BME280;57767;42.068;24.752;2023-08-07T04:57:35;98276.41;;;25.53;41.38
70343;BME280;57767;42.068;24.752;2023-08-07T04:58:36;98273.06;;;25.56;40.51
70343;BME280;57767;42.068;24.752;2023-08-07T04:59:38;98276.09;;;25.54;40.74
70343;BME280;57767;42.068;24.752;2023-08-07T05:00:40;98279.13;;;25.53;40.78
70343;BME280;57767;42.068;24.752;2023-08-07T05:01:42;98277.22;;;25.62;40.79
70343;BME280;57767;42.068;24.752;2023-08-07T05:02:44;98287.69;;;25.72;41.10
70343;BME280;57767;42.068;24.752;2023-08-07T05:03:45;98290.25;;;25.77;40.14
70343;BME280;57767;42.068;24.752;2023-08-07T05:04:47;98272.75;;;25.83;40.59
70343;BME280;57767;42.068;24.752;2023-08-07T05:05:49;98279.22;;;25.99;40.70
70343;BME280;57767;42.068;24.752;2023-08-07T05:06:51;98276.34;;;26.04;39.41
70343;BME280;57767;42.068;24.752;2023-08-07T05:07:54;98298.63;;;26.01;39.29
70343;BME280;57767;42.068;24.752;2023-08-07T05:08:56;98279.72;;;25.84;38.81
70343;BME280;57767;42.068;24.752;2023-08-07T05:09:58;98290.41;;;25.81;39.69
70343;BME280;57767;42.068;24.752;2023-08-07T05:11:01;98290.88;;;25.74;39.91
70343;BME280;57767;42.068;24.752;2023-08-07T05:12:03;98285.97;;;25.67;39.95
70343;BME280;57767;42.068;24.752;2023-08-07T05:13:05;98295.03;;;25.63;40.00
70343;BME280;57767;42.068;24.752;2023-08-07T05:14:06;98289.63;;;25.63;40.06
70343;BME280;57767;42.068;24.752;2023-08-07T05:15:09;98280.53;;;25.50;39.99
70343;BME280;57767;42.068;24.752;2023-08-07T05:16:11;98284.03;;;25.51;40.18
70343;BME280;57767;42.068;24.752;2023-08-07T05:17:15;98289.16;;;25.61;41.01
70343;BME280;57767;42.068;24.752;2023-08-07T05:18:17;98293.09;;;25.72;40.36
70343;BME280;57767;42.068;24.752;2023-08-07T05:19:19;98294.06;;;25.76;40.51
70343;BME280;57767;42.068;24.752;2023-08-07T05:20:21;98295.50;;;25.74;41.29
70343;BME280;57767;42.068;24.752;2023-08-07T05:21:23;98296.75;;;25.85;39.92
70343;BME280;57767;42.068;24.752;2023-08-07T05:22:24;98296.13;;;25.88;40.34
70343;BME280;57767;42.068;24.752;2023-08-07T05:23:26;98298.03;;;25.96;40.24
70343;BME280;57767;42.068;24.752;2023-08-07T05:24:28;98296.38;;;26.12;39.83
70343;BME280;57767;42.068;24.752;2023-08-07T05:25:36;98295.84;;;26.36;40.45
70343;BME280;57767;42.068;24.752;2023-08-07T05:26:38;98287.50;;;26.50;39.76
70343;BME280;57767;42.068;24.752;2023-08-07T05:27:43;98295.03;;;26.73;39.34
70343;BME280;57767;42.068;24.752;2023-08-07T05:28:45;98300.84;;;26.93;38.80
70343;BME280;57767;42.068;24.752;2023-08-07T05:29:46;98296.00;;;26.98;38.43